Time;durP1;ratioP1;P1;durP2;ratioP2;P2;SDS_P1;SDS_P2;PMS_P1;PMS_P2;Temp;Humidity;BMP_temperature;BMP_pressure;BME280_temperature;BME280_humidity;BME280_pressure;Samples;Min_cycle;Max_cycle;Signal;HPM_P1;HPM_P2
2023/03/29 00:01:50;;;;;;;5.78;2.33;;;4.90;99.90;;;;;;5108419;28;20043;-83
2023/03/29 00:04:20;;;;;;;5.35;2.22;;;4.90;99.90;;;;;;5084436;28;20403;-83
2023/03/29 00:06:47;;;;;;;5.10;2.28;;;4.90;99.90;;;;;;5130681;28;20046;-83
2023/03/29 00:09:14;;;;;;;5.78;2.47;;;5.10;99.90;;;;;;5111024;28;20044;-84
2023/03/29 00:11:41;;;;;;;4.45;2.40;;;4.90;99.90;;;;;;5109669;28;20051;-84
2023/03/29 00:14:08;;;;;;;5.47;2.42;;;4.90;99.90;;;;;;5129059;28;20047;-83
2023/03/29 00:16:34;;;;;;;5.40;2.40;;;4.80;99.90;;;;;;5090892;28;20392;-84
2023/03/29 00:19:01;;;;;;;7.30;2.92;;;4.80;99.90;;;;;;5104810;28;20109;-83
2023/03/29 00:21:28;;;;;;;8.98;2.92;;;4.90;99.90;;;;;;5114573;28;20503;-84
2023/03/29 00:23:56;;;;;;;5.70;2.40;;;4.80;99.90;;;;;;5111103;28;20047;-84
2023/03/29 00:26:23;;;;;;;6.05;2.42;;;4.80;99.90;;;;;;5104659;28;20042;-84
2023/03/29 00:28:49;;;;;;;8.18;2.40;;;4.80;99.90;;;;;;5087398;28;20044;-83
2023/03/29 00:31:17;;;;;;;7.78;2.60;;;4.70;99.90;;;;;;5104952;28;20040;-83
2023/03/29 00:33:46;;;;;;;7.38;2.40;;;4.70;99.90;;;;;;5100706;28;20043;-84
2023/03/29 00:36:14;;;;;;;7.60;2.58;;;4.70;99.90;;;;;;5101023;28;20434;-84
2023/03/29 00:38:41;;;;;;;5.65;2.22;;;4.70;99.90;;;;;;5100530;28;20039;-84
2023/03/29 00:41:09;;;;;;;6.53;2.50;;;4.70;99.90;;;;;;5110745;28;20043;-83
2023/03/29 00:44:00;;;;;;;5.90;2.70;;;4.70;99.90;;;;;;5104323;28;20153;-84
2023/03/29 00:46:29;;;;;;;4.25;2.22;;;4.70;99.90;;;;;;5127063;28;20032;-83
2023/03/29 00:49:08;;;;;;;5.43;2.60;;;4.70;99.90;;;;;;5130095;28;20063;-84
2023/03/29 00:51:37;;;;;;;5.05;2.35;;;4.70;99.90;;;;;;5113666;28;20040;-84
2023/03/29 00:54:07;;;;;;;5.85;2.30;;;4.70;99.90;;;;;;5127490;28;20043;-83
2023/03/29 00:56:38;;;;;;;5.38;2.78;;;4.70;99.90;;;;;;5094482;28;20038;-84
2023/03/29 00:59:13;;;;;;;5.13;2.60;;;4.70;99.90;;;;;;5127449;28;20499;-84
2023/03/29 01:01:53;;;;;;;6.43;2.67;;;4.70;99.90;;;;;;5121263;28;20044;-84
2023/03/29 01:04:35;;;;;;;6.32;2.50;;;4.70;99.90;;;;;;5120191;28;20050;-84
2023/03/29 01:07:12;;;;;;;5.82;3.10;;;4.70;99.90;;;;;;5113419;28;20128;-84
2023/03/29 01:09:43;;;;;;;6.72;2.83;;;4.70;99.90;;;;;;5119554;28;20089;-84
2023/03/29 01:12:21;;;;;;;6.68;2.72;;;4.70;99.90;;;;;;5129444;28;20047;-84
2023/03/29 01:14:53;;;;;;;6.72;2.70;;;4.70;99.90;;;;;;5112433;28;20032;-84
2023/03/29 01:17:20;;;;;;;6.53;2.70;;;4.60;99.90;;;;;;5124484;28;20032;-83
2023/03/29 01:19:56;;;;;;;5.95;2.80;;;4.70;99.90;;;;;;5077734;28;20044;-84
2023/03/29 01:22:37;;;;;;;6.22;2.92;;;4.70;99.90;;;;;;5112089;28;20044;-84
2023/03/29 01:25:25;;;;;;;7.22;2.92;;;4.70;99.90;;;;;;5132477;28;20040;-83
2023/03/29 01:28:02;;;;;;;5.15;2.63;;;4.70;99.90;;;;;;5127168;28;20104;-84
2023/03/29 01:30:35;;;;;;;6.47;2.60;;;4.70;99.90;;;;;;5111782;28;20032;-84
2023/03/29 01:33:09;;;;;;;5.40;2.25;;;4.70;99.90;;;;;;5128085;28;20043;-84
2023/03/29 01:35:47;;;;;;;5.38;2.75;;;4.70;99.90;;;;;;5121011;28;20081;-84
2023/03/29 01:38:22;;;;;;;5.38;2.75;;;4.80;99.90;;;;;;5110207;28;20031;-84
2023/03/29 01:40:49;;;;;;;6.47;2.92;;;4.80;99.90;;;;;;5118894;28;20088;-84
2023/03/29 01:43:39;;;;;;;6.97;2.80;;;4.70;99.90;;;;;;5112270;28;20043;-83
2023/03/29 01:46:25;;;;;;;5.70;2.70;;;4.80;99.90;;;;;;5129301;28;20042;-84
2023/03/29 01:49:03;;;;;;;5.30;2.72;;;4.80;99.90;;;;;;5126977;28;20055;-83
2023/03/29 01:52:01;;;;;;;5.35;2.83;;;4.80;99.90;;;;;;5114986;28;20381;-84
2023/03/29 01:54:37;;;;;;;6.10;2.70;;;4.80;99.90;;;;;;5123346;28;20048;-83
2023/03/29 01:57:09;;;;;;;7.57;3.22;;;4.80;99.90;;;;;;5129807;28;20044;-84
2023/03/29 01:59:39;;;;;;;5.82;2.70;;;4.80;99.90;;;;;;5109189;28;20551;-84
2023/03/29 02:02:11;;;;;;;6.03;2.88;;;4.80;99.90;;;;;;5146555;28;20419;-83
2023/03/29 02:04:44;;;;;;;5.55;3.05;;;4.80;99.90;;;;;;5119278;28;20600;-83
2023/03/29 02:07:11;;;;;;;5.57;3.13;;;4.80;99.90;;;;;;5119532;28;20092;-83
2023/03/29 02:09:40;;;;;;;7.90;2.95;;;4.80;99.90;;;;;;5103212;28;20047;-83
2023/03/29 02:12:08;;;;;;;5.70;3.00;;;4.80;99.90;;;;;;5112538;28;20059;-83
2023/03/29 02:14:35;;;;;;;7.93;3.30;;;4.90;99.90;;;;;;5101456;28;20042;-83
2023/03/29 02:17:17;;;;;;;5.97;3.10;;;4.80;99.90;;;;;;5092749;28;20044;-84
2023/03/29 02:19:49;;;;;;;8.02;3.40;;;4.80;99.90;;;;;;5118830;28;20118;-83
2023/03/29 02:22:21;;;;;;;6.18;3.17;;;4.90;99.90;;;;;;5121077;28;20039;-83
2023/03/29 02:24:50;;;;;;;9.05;3.33;;;4.80;99.90;;;;;;5128018;28;20039;-83
2023/03/29 02:27:17;;;;;;;6.22;2.97;;;4.80;99.90;;;;;;5119299;28;20047;-83
2023/03/29 02:29:46;;;;;;;6.10;3.00;;;4.80;99.90;;;;;;5085987;28;20050;-83
2023/03/29 02:32:48;;;;;;;6.53;3.40;;;4.80;99.90;;;;;;5092401;28;20036;-84
2023/03/29 02:35:25;;;;;;;8.05;3.20;;;4.80;99.90;;;;;;5108059;28;20040;-84
2023/03/29 02:37:54;;;;;;;7.65;3.38;;;4.80;99.90;;;;;;5145745;28;20515;-84
2023/03/29 02:40:23;;;;;;;11.15;3.35;;;5.00;99.90;;;;;;5108935;28;20040;-84
2023/03/29 02:42:50;;;;;;;9.52;3.50;;;4.80;99.90;;;;;;5118927;28;20048;-83
2023/03/29 02:45:18;;;;;;;8.52;3.33;;;4.90;99.90;;;;;;5107581;28;20051;-83
2023/03/29 02:47:50;;;;;;;7.15;3.25;;;4.80;99.90;;;;;;5090598;28;20523;-83
2023/03/29 02:50:19;;;;;;;7.55;3.50;;;4.80;99.90;;;;;;5121299;28;20178;-83
2023/03/29 02:52:53;;;;;;;8.27;3.80;;;4.80;99.90;;;;;;5118965;28;20036;-84
2023/03/29 02:55:23;;;;;;;9.13;4.10;;;4.90;99.90;;;;;;5127495;28;20035;-84
2023/03/29 02:57:50;;;;;;;9.38;3.88;;;4.80;99.90;;;;;;5115832;28;20060;-83
2023/03/29 03:00:21;;;;;;;9.93;3.55;;;4.90;99.90;;;;;;5115998;28;20223;-84
2023/03/29 03:02:49;;;;;;;9.38;3.95;;;4.80;99.90;;;;;;5116537;28;20039;-83
2023/03/29 03:05:16;;;;;;;8.63;4.22;;;4.90;99.90;;;;;;5117641;28;20416;-84
2023/03/29 03:07:44;;;;;;;9.75;4.03;;;4.90;99.90;;;;;;5103334;28;20053;-84
2023/03/29 03:10:11;;;;;;;9.10;4.63;;;4.90;99.90;;;;;;5103021;28;20047;-84
2023/03/29 03:12:38;;;;;;;11.90;4.70;;;4.90;99.90;;;;;;5126323;28;20408;-84
2023/03/29 03:15:05;;;;;;;9.27;4.20;;;4.90;99.90;;;;;;5112469;28;20557;-83
2023/03/29 03:17:32;;;;;;;7.47;4.28;;;4.80;99.90;;;;;;5092162;28;20020;-83
2023/03/29 03:19:59;;;;;;;9.95;4.75;;;4.80;99.90;;;;;;5105513;28;20105;-83
2023/03/29 03:22:26;;;;;;;12.13;5.28;;;4.90;99.90;;;;;;5113147;28;20043;-83
2023/03/29 03:24:52;;;;;;;13.32;5.68;;;4.90;99.90;;;;;;5105115;28;20048;-83
2023/03/29 03:27:19;;;;;;;9.98;5.85;;;4.90;99.90;;;;;;5104372;28;20069;-84
2023/03/29 03:29:47;;;;;;;12.65;5.43;;;4.90;99.90;;;;;;5105250;28;20063;-83
2023/03/29 03:32:14;;;;;;;11.30;5.78;;;4.90;99.90;;;;;;5096471;28;20531;-84
2023/03/29 03:34:41;;;;;;;10.00;5.38;;;4.90;99.90;;;;;;5115214;28;20119;-84
2023/03/29 03:37:07;;;;;;;11.52;6.30;;;4.90;99.90;;;;;;5095259;28;20507;-84
2023/03/29 03:39:34;;;;;;;12.10;6.45;;;4.90;99.90;;;;;;5100784;28;20041;-84
2023/03/29 03:42:01;;;;;;;13.35;6.13;;;4.90;99.90;;;;;;5110855;28;20036;-84
2023/03/29 03:44:27;;;;;;;15.18;6.65;;;4.90;99.90;;;;;;5132869;28;20084;-84
2023/03/29 03:46:54;;;;;;;10.73;6.57;;;4.90;99.90;;;;;;5094885;28;20036;-83
2023/03/29 03:49:21;;;;;;;11.57;6.25;;;4.90;99.90;;;;;;5092932;28;20047;-83
2023/03/29 03:51:48;;;;;;;12.77;6.97;;;4.90;99.90;;;;;;5125154;28;20040;-83
2023/03/29 03:54:15;;;;;;;12.32;7.07;;;5.10;99.90;;;;;;5101816;28;20042;-83
2023/03/29 03:56:42;;;;;;;13.73;7.07;;;5.30;99.90;;;;;;5081624;28;20420;-84
2023/03/29 03:59:09;;;;;;;14.77;7.15;;;4.90;99.90;;;;;;5095008;28;20090;-84
2023/03/29 04:01:36;;;;;;;13.32;7.13;;;4.90;99.90;;;;;;5100477;28;20039;-84
2023/03/29 04:04:03;;;;;;;11.82;6.70;;;4.90;99.90;;;;;;5099376;28;20035;-84
2023/03/29 04:06:30;;;;;;;13.00;7.13;;;5.00;99.90;;;;;;5111478;28;20097;-84
2023/03/29 04:08:56;;;;;;;13.30;7.10;;;4.90;99.90;;;;;;5105495;28;20123;-84
2023/03/29 04:11:23;;;;;;;13.50;7.40;;;5.00;99.90;;;;;;5094837;28;20068;-83
2023/03/29 04:13:50;;;;;;;16.60;8.43;;;4.90;99.90;;;;;;5089973;28;20056;-84
2023/03/29 04:16:17;;;;;;;15.80;7.68;;;4.90;99.90;;;;;;5101660;28;20036;-84
2023/03/29 04:18:46;;;;;;;15.57;8.10;;;4.90;99.90;;;;;;5103166;28;20123;-84
2023/03/29 04:21:13;;;;;;;15.43;7.28;;;5.00;99.90;;;;;;5086954;28;20036;-84
2023/03/29 04:23:41;;;;;;;15.65;8.77;;;5.00;99.90;;;;;;5106114;28;20101;-84
2023/03/29 04:26:08;;;;;;;14.13;7.70;;;5.30;99.90;;;;;;5121605;28;20039;-84
2023/03/29 04:28:35;;;;;;;16.92;8.02;;;5.30;99.90;;;;;;5086531;28;20040;-84
2023/03/29 04:31:02;;;;;;;15.10;8.48;;;5.00;99.90;;;;;;5114276;28;20143;-83
2023/03/29 04:33:28;;;;;;;15.70;8.10;;;5.00;99.90;;;;;;5113696;28;20044;-83
2023/03/29 04:35:56;;;;;;;14.05;8.00;;;5.00;99.90;;;;;;5111472;28;20368;-84
2023/03/29 04:38:23;;;;;;;14.55;7.85;;;5.00;99.90;;;;;;5125884;28;20063;-84
2023/03/29 04:40:50;;;;;;;16.85;9.10;;;5.00;99.90;;;;;;5098790;28;20071;-84
2023/03/29 04:43:16;;;;;;;18.35;8.60;;;5.00;99.90;;;;;;5093692;28;20852;-84
2023/03/29 04:45:43;;;;;;;16.50;8.27;;;5.00;99.90;;;;;;5128124;28;20040;-84
2023/03/29 04:48:10;;;;;;;14.93;7.65;;;5.00;99.90;;;;;;5093008;28;20492;-84
2023/03/29 04:50:37;;;;;;;14.95;8.40;;;5.00;99.90;;;;;;5120559;28;20040;-84
2023/03/29 04:53:03;;;;;;;16.20;7.72;;;5.00;99.90;;;;;;5113578;28;20135;-84
2023/03/29 04:55:30;;;;;;;15.50;7.93;;;5.20;99.90;;;;;;5081954;28;20036;-84
2023/03/29 04:57:57;;;;;;;14.75;8.30;;;5.00;99.90;;;;;;5119204;28;20032;-84
2023/03/29 05:00:26;;;;;;;14.75;8.05;;;5.00;99.90;;;;;;5108129;28;20043;-84
2023/03/29 05:02:53;;;;;;;15.90;7.80;;;5.00;99.90;;;;;;5090310;28;20043;-84
2023/03/29 05:05:20;;;;;;;15.13;8.55;;;5.00;99.90;;;;;;5114621;28;20050;-84
2023/03/29 05:07:47;;;;;;;17.88;8.60;;;5.00;99.90;;;;;;5105475;28;20036;-84
2023/03/29 05:10:13;;;;;;;15.57;7.72;;;5.00;99.90;;;;;;5100640;28;20070;-84
2023/03/29 05:12:40;;;;;;;15.48;8.50;;;5.00;99.90;;;;;;5089265;28;20125;-84
2023/03/29 05:15:08;;;;;;;15.57;7.85;;;5.00;99.90;;;;;;5108852;28;20043;-83
2023/03/29 05:17:35;;;;;;;17.23;7.93;;;5.00;99.90;;;;;;5137039;28;20028;-84
2023/03/29 05:20:08;;;;;;;14.48;8.10;;;5.00;99.90;;;;;;5085415;28;20051;-84
2023/03/29 05:22:35;;;;;;;14.93;8.27;;;5.10;99.90;;;;;;5103137;28;20035;-84
2023/03/29 05:25:02;;;;;;;16.52;8.38;;;5.10;99.90;;;;;;5100900;28;20032;-84
2023/03/29 05:27:29;;;;;;;17.20;7.93;;;5.10;99.90;;;;;;5088806;28;20069;-85
2023/03/29 05:29:56;;;;;;;17.88;8.20;;;5.10;99.90;;;;;;5107641;28;20503;-83
2023/03/29 05:32:23;;;;;;;14.68;8.32;;;5.10;99.90;;;;;;5125646;28;20084;-84
2023/03/29 05:34:50;;;;;;;14.75;7.50;;;5.10;99.90;;;;;;5085099;28;20032;-84
2023/03/29 05:37:17;;;;;;;14.32;7.75;;;5.10;99.90;;;;;;5080942;28;20039;-84
2023/03/29 05:39:44;;;;;;;17.40;8.45;;;5.10;99.90;;;;;;5106556;28;20061;-84
2023/03/29 05:42:12;;;;;;;14.50;7.82;;;5.10;99.90;;;;;;5099961;28;20035;-84
2023/03/29 05:44:39;;;;;;;14.00;8.07;;;5.20;99.90;;;;;;5094945;28;20118;-84
2023/03/29 05:47:06;;;;;;;13.65;7.75;;;5.20;99.90;;;;;;5115625;28;20052;-84
2023/03/29 05:49:33;;;;;;;14.73;7.82;;;5.20;99.90;;;;;;5108499;28;20198;-84
2023/03/29 05:51:59;;;;;;;15.27;8.75;;;5.20;99.90;;;;;;5120141;28;20038;-84
2023/03/29 05:54:26;;;;;;;15.30;7.93;;;5.20;99.90;;;;;;5089869;28;20040;-84
2023/03/29 05:56:53;;;;;;;15.63;7.22;;;5.20;99.90;;;;;;5109151;28;20038;-84
2023/03/29 05:59:19;;;;;;;15.80;8.40;;;5.20;99.90;;;;;;5104706;28;20184;-85
2023/03/29 06:01:46;;;;;;;17.83;9.55;;;5.20;99.90;;;;;;5107094;28;20920;-84
2023/03/29 06:04:14;;;;;;;16.63;9.80;;;5.20;99.90;;;;;;5108122;28;20487;-84
2023/03/29 06:06:41;;;;;;;17.98;9.50;;;5.20;99.90;;;;;;5113457;28;20036;-84
2023/03/29 06:09:08;;;;;;;16.15;8.90;;;5.30;99.90;;;;;;5089167;28;20050;-84
2023/03/29 06:11:35;;;;;;;13.02;8.23;;;5.30;99.90;;;;;;5081025;28;20082;-84
2023/03/29 06:14:02;;;;;;;18.25;9.32;;;5.30;99.90;;;;;;5084389;28;20044;-84
2023/03/29 06:16:29;;;;;;;18.65;9.45;;;5.30;99.90;;;;;;5087265;28;20050;-84
2023/03/29 06:18:56;;;;;;;15.07;8.68;;;5.30;99.90;;;;;;5116608;28;20036;-85
2023/03/29 06:21:25;;;;;;;20.20;9.68;;;5.30;99.90;;;;;;5089390;28;20039;-85
2023/03/29 06:23:52;;;;;;;15.98;8.43;;;5.30;99.90;;;;;;5118689;28;20036;-85
2023/03/29 06:26:18;;;;;;;19.60;8.88;;;5.40;99.90;;;;;;5108665;28;20059;-85
2023/03/29 06:28:45;;;;;;;14.43;9.52;;;5.30;99.90;;;;;;5109899;28;20047;-86
2023/03/29 06:31:12;;;;;;;18.83;10.45;;;5.30;99.90;;;;;;5098818;28;20122;-85
2023/03/29 06:33:41;;;;;;;18.30;10.38;;;5.40;99.90;;;;;;5101571;28;20106;-85
2023/03/29 06:36:10;;;;;;;17.00;10.15;;;5.30;99.90;;;;;;5117713;28;20043;-85
2023/03/29 06:38:37;;;;;;;16.85;9.18;;;5.40;99.90;;;;;;5117099;28;20040;-85
2023/03/29 06:41:06;;;;;;;21.13;9.80;;;5.40;99.90;;;;;;5099717;28;20046;-85
2023/03/29 06:43:33;;;;;;;18.48;9.60;;;5.30;99.90;;;;;;5116591;28;20043;-86
2023/03/29 06:46:00;;;;;;;16.48;9.35;;;5.40;99.90;;;;;;5150038;28;20097;-85
2023/03/29 06:48:28;;;;;;;19.42;8.98;;;5.40;99.90;;;;;;5116804;28;20043;-85
2023/03/29 06:50:55;;;;;;;17.52;9.45;;;5.40;99.90;;;;;;5100110;28;20039;-85
2023/03/29 06:53:22;;;;;;;25.70;10.77;;;5.50;99.90;;;;;;5099799;28;20039;-85
2023/03/29 06:55:51;;;;;;;20.20;10.02;;;5.50;99.90;;;;;;5116781;28;20534;-85
2023/03/29 06:58:18;;;;;;;15.55;9.45;;;5.50;99.90;;;;;;5116759;28;20046;-85
2023/03/29 07:00:46;;;;;;;14.70;9.07;;;5.60;99.90;;;;;;5125387;28;20036;-85
2023/03/29 07:03:19;;;;;;;22.30;9.82;;;5.60;99.90;;;;;;5113018;28;20047;-85
2023/03/29 07:05:46;;;;;;;22.70;10.45;;;5.60;99.90;;;;;;5097041;28;20048;-85
2023/03/29 07:08:15;;;;;;;15.60;9.60;;;5.70;99.90;;;;;;5112178;28;20331;-85
2023/03/29 07:10:44;;;;;;;16.80;9.93;;;5.80;99.90;;;;;;5087532;28;20036;-85
2023/03/29 07:13:12;;;;;;;17.67;9.55;;;5.70;99.90;;;;;;5111654;28;20112;-84
2023/03/29 07:15:40;;;;;;;16.52;9.23;;;5.80;99.90;;;;;;5112515;28;20044;-84
2023/03/29 07:18:08;;;;;;;18.73;9.70;;;5.80;99.90;;;;;;5095238;28;20490;-84
2023/03/29 07:20:37;;;;;;;17.00;9.68;;;5.90;99.90;;;;;;5112419;28;20567;-84
2023/03/29 07:23:05;;;;;;;14.82;9.15;;;5.90;99.90;;;;;;5095702;28;20051;-86
2023/03/29 07:25:32;;;;;;;14.52;9.10;;;6.00;99.90;;;;;;5095933;28;20134;-84
2023/03/29 07:27:59;;;;;;;18.95;8.93;;;6.00;99.90;;;;;;5095971;28;20044;-86
2023/03/29 07:30:29;;;;;;;18.88;10.52;;;6.00;99.90;;;;;;5096884;28;20043;-85
2023/03/29 07:32:57;;;;;;;16.42;9.35;;;6.10;99.90;;;;;;5128808;28;20036;-85
2023/03/29 07:35:25;;;;;;;16.05;9.00;;;6.10;99.90;;;;;;5091803;28;20570;-85
2023/03/29 07:37:54;;;;;;;16.52;8.70;;;6.10;99.90;;;;;;5110645;28;20074;-85
2023/03/29 07:40:24;;;;;;;15.60;8.57;;;6.20;99.90;;;;;;5098504;28;20098;-85
2023/03/29 07:42:53;;;;;;;18.05;9.55;;;6.20;99.90;;;;;;5124687;28;20035;-85
2023/03/29 07:45:22;;;;;;;17.25;10.10;;;6.30;99.90;;;;;;5112676;28;20043;-85
2023/03/29 07:47:53;;;;;;;18.52;9.95;;;6.30;99.90;;;;;;5111927;28;20048;-85
2023/03/29 07:50:20;;;;;;;16.67;9.65;;;6.40;99.90;;;;;;5125215;28;20035;-85
2023/03/29 07:52:48;;;;;;;17.80;9.77;;;6.40;99.90;;;;;;5100880;28;20055;-85
2023/03/29 07:55:15;;;;;;;16.05;8.63;;;6.50;99.90;;;;;;5078659;28;20032;-84
2023/03/29 07:57:43;;;;;;;21.05;10.05;;;6.50;99.90;;;;;;5087296;28;20064;-85
2023/03/29 08:00:14;;;;;;;17.05;9.02;;;6.50;99.90;;;;;;5078823;28;20523;-90
2023/03/29 08:02:46;;;;;;;13.65;8.95;;;6.60;99.90;;;;;;5130536;28;20040;-84
2023/03/29 08:05:14;;;;;;;15.35;9.40;;;6.60;99.90;;;;;;5111057;28;20665;-85
2023/03/29 08:07:42;;;;;;;16.92;9.52;;;6.80;99.90;;;;;;5096058;28;20518;-85
2023/03/29 08:10:12;;;;;;;17.85;9.10;;;6.90;99.90;;;;;;5148290;28;20104;-84
2023/03/29 08:12:40;;;;;;;16.95;8.55;;;7.10;99.90;;;;;;5131498;28;20054;-84
2023/03/29 08:15:09;;;;;;;16.08;8.82;;;7.10;99.90;;;;;;5131016;28;20043;-84
2023/03/29 08:17:36;;;;;;;15.45;8.13;;;7.10;99.90;;;;;;5131333;28;20539;-83
2023/03/29 08:20:05;;;;;;;15.98;8.55;;;7.20;99.90;;;;;;5114483;28;20123;-84
2023/03/29 08:22:33;;;;;;;14.50;8.57;;;7.20;99.90;;;;;;5130931;28;20044;-85
2023/03/29 08:25:00;;;;;;;14.73;7.97;;;7.30;99.90;;;;;;5114713;28;20100;-86
2023/03/29 08:27:27;;;;;;;15.45;8.25;;;7.30;99.90;;;;;;5114481;28;20059;-84
2023/03/29 08:29:54;;;;;;;12.10;7.53;;;7.30;99.90;;;;;;5087342;28;20079;-84
2023/03/29 08:32:23;;;;;;;11.00;7.05;;;7.40;99.90;;;;;;5077211;28;20083;-85
2023/03/29 08:34:50;;;;;;;12.77;7.25;;;7.40;99.90;;;;;;5078241;28;20043;-85
2023/03/29 08:37:17;;;;;;;14.90;6.95;;;7.40;99.90;;;;;;5093467;28;20040;-85
2023/03/29 08:39:44;;;;;;;13.00;6.90;;;7.40;99.90;;;;;;5110334;28;20032;-85
2023/03/29 08:42:43;;;;;;;15.02;7.35;;;7.40;99.90;;;;;;5093684;28;20046;-82
2023/03/29 08:45:13;;;;;;;12.55;7.15;;;7.50;99.90;;;;;;5109759;28;20504;-85
2023/03/29 08:48:02;;;;;;;13.10;7.00;;;7.50;99.90;;;;;;5110483;28;20089;-85
2023/03/29 08:50:36;;;;;;;12.80;6.80;;;7.50;99.90;;;;;;5127146;28;20078;-85
2023/03/29 08:53:11;;;;;;;14.32;6.95;;;7.60;99.90;;;;;;5108987;28;20575;-85
2023/03/29 08:55:44;;;;;;;14.20;7.03;;;7.60;99.90;;;;;;5125360;28;20039;-84
2023/03/29 08:58:16;;;;;;;10.80;7.15;;;7.80;99.90;;;;;;5121036;28;20043;-84
2023/03/29 09:00:56;;;;;;;11.07;6.82;;;7.90;99.90;;;;;;5129994;28;20388;-84
2023/03/29 09:03:45;;;;;;;9.57;6.15;;;7.90;99.90;;;;;;5147583;28;20035;-84
2023/03/29 09:06:12;;;;;;;15.25;6.63;;;8.00;99.90;;;;;;5130201;28;20044;-84
2023/03/29 09:08:45;;;;;;;9.68;6.03;;;8.20;99.90;;;;;;5130339;28;20086;-85
2023/03/29 09:11:25;;;;;;;12.88;6.90;;;8.30;99.90;;;;;;5128550;28;20464;-84
2023/03/29 09:14:29;;;;;;;11.68;6.53;;;8.40;99.90;;;;;;5129759;28;20643;-84
2023/03/29 09:17:27;;;;;;;10.60;6.32;;;8.40;99.90;;;;;;5130173;28;20095;-84
2023/03/29 09:20:12;;;;;;;12.95;5.90;;;8.60;99.90;;;;;;5128844;28;20046;-87
2023/03/29 09:23:06;;;;;;;10.98;5.85;;;8.70;99.90;;;;;;5126287;28;20044;-85
2023/03/29 09:26:06;;;;;;;13.32;6.15;;;8.80;99.90;;;;;;5116283;28;20488;-85
2023/03/29 09:28:52;;;;;;;12.95;5.65;;;8.80;99.90;;;;;;5109250;28;20433;-85
2023/03/29 09:31:29;;;;;;;10.90;6.57;;;8.80;99.90;;;;;;5128472;28;20043;-85
2023/03/29 09:34:15;;;;;;;8.73;5.60;;;8.90;99.90;;;;;;5129822;28;20055;-84
2023/03/29 09:36:52;;;;;;;14.95;6.13;;;9.00;99.90;;;;;;5129585;28;20781;-86
2023/03/29 09:39:20;;;;;;;10.82;6.28;;;9.10;99.90;;;;;;5146496;28;20514;-85
2023/03/29 09:41:59;;;;;;;14.10;6.50;;;9.40;99.90;;;;;;5093198;28;20035;-85
2023/03/29 09:44:37;;;;;;;10.93;6.00;;;9.50;99.90;;;;;;5108887;28;20050;-84
2023/03/29 09:47:13;;;;;;;11.18;5.70;;;9.70;99.90;;;;;;5109987;28;20056;-84
2023/03/29 09:49:43;;;;;;;12.50;6.03;;;9.80;99.90;;;;;;5124024;28;20099;-84
2023/03/29 09:52:13;;;;;;;12.93;6.40;;;10.00;99.90;;;;;;5129482;28;20035;-84
2023/03/29 09:54:40;;;;;;;12.25;6.18;;;10.20;99.90;;;;;;5122048;28;20036;-84
2023/03/29 09:57:12;;;;;;;10.93;6.05;;;10.40;99.90;;;;;;5077834;28;20756;-84
2023/03/29 09:59:39;;;;;;;16.45;6.80;;;10.40;99.90;;;;;;5125233;28;20032;-85
2023/03/29 10:02:09;;;;;;;15.15;6.38;;;10.40;99.90;;;;;;5087844;28;20376;-85
2023/03/29 10:04:37;;;;;;;9.98;6.03;;;10.40;99.90;;;;;;5112346;28;20185;-85
2023/03/29 10:07:07;;;;;;;13.77;6.82;;;10.50;99.90;;;;;;5112957;28;20567;-85
2023/03/29 10:09:34;;;;;;;12.88;5.97;;;10.60;99.90;;;;;;5129249;28;20040;-84
2023/03/29 10:12:05;;;;;;;14.55;7.10;;;10.60;99.90;;;;;;5112166;28;20054;-85
2023/03/29 10:14:37;;;;;;;11.90;6.65;;;10.50;99.90;;;;;;5129534;28;20051;-86
2023/03/29 10:17:12;;;;;;;15.88;6.68;;;10.50;99.90;;;;;;5129970;28;20075;-86
2023/03/29 10:19:48;;;;;;;11.85;6.75;;;10.40;99.90;;;;;;5113564;28;20700;-87
2023/03/29 10:22:26;;;;;;;12.77;6.55;;;10.40;99.90;;;;;;5115708;28;20041;-88
2023/03/29 10:24:56;;;;;;;12.90;6.47;;;10.40;99.90;;;;;;5144158;28;20127;-88
2023/03/29 10:27:28;;;;;;;12.70;6.20;;;10.40;99.90;;;;;;5109081;28;20046;-86
2023/03/29 10:29:57;;;;;;;12.68;6.10;;;10.30;99.90;;;;;;5091932;28;20040;-86
2023/03/29 10:32:35;;;;;;;15.50;6.00;;;10.40;99.90;;;;;;5126936;28;20040;-87
2023/03/29 10:35:11;;;;;;;12.23;6.72;;;10.30;99.90;;;;;;5112728;28;20036;-86
2023/03/29 10:37:47;;;;;;;;;;;10.40;99.90;;;;;;5130484;28;20044;-88
2023/03/29 10:40:32;;;;;;;10.15;6.40;;;10.30;99.90;;;;;;5117108;28;19927;-86
2023/03/29 10:43:09;;;;;;;11.25;5.88;;;10.40;99.90;;;;;;5114976;28;20089;-86
2023/03/29 10:45:37;;;;;;;12.10;6.65;;;10.40;99.90;;;;;;5125442;28;20078;-86
2023/03/29 10:48:06;;;;;;;11.98;6.60;;;10.40;99.90;;;;;;5092707;28;20048;-86
2023/03/29 10:50:36;;;;;;;11.18;6.68;;;10.40;99.90;;;;;;5098768;28;20485;-86
2023/03/29 10:53:20;;;;;;;12.50;6.80;;;10.50;99.90;;;;;;5125943;28;20040;-86
2023/03/29 10:55:59;;;;;;;16.05;6.93;;;10.50;99.90;;;;;;5112245;28;20028;-86
2023/03/29 10:58:50;;;;;;;13.25;6.40;;;10.50;99.90;;;;;;5108425;28;20068;-86
2023/03/29 11:01:43;;;;;;;12.63;7.82;;;10.50;99.90;;;;;;5120752;28;20028;-86
2023/03/29 11:04:39;;;;;;;14.25;7.70;;;10.50;99.90;;;;;;5125960;28;20040;-86
2023/03/29 11:07:14;;;;;;;12.45;6.78;;;10.50;99.90;;;;;;5072566;28;20060;-86
2023/03/29 11:10:12;;;;;;;13.20;6.82;;;10.60;99.90;;;;;;5108658;28;20047;-86
2023/03/29 11:13:10;;;;;;;12.60;6.20;;;10.60;99.90;;;;;;5123137;28;20055;-86
2023/03/29 11:15:48;;;;;;;11.05;6.47;;;10.60;99.90;;;;;;5128522;28;20063;-88
2023/03/29 11:18:50;;;;;;;10.88;6.15;;;10.70;99.90;;;;;;5117512;28;20115;-87
2023/03/29 11:21:20;;;;;;;15.95;6.65;;;10.60;99.90;;;;;;5122318;28;20048;-87
2023/03/29 11:24:06;;;;;;;10.90;7.00;;;10.70;99.90;;;;;;5149734;28;20044;-87
2023/03/29 11:26:57;;;;;;;18.02;7.18;;;10.80;99.90;;;;;;5132661;28;20176;-86
2023/03/29 11:29:33;;;;;;;12.18;7.13;;;10.80;99.90;;;;;;5125043;28;20051;-87
2023/03/29 11:32:06;;;;;;;12.52;6.03;;;10.90;99.90;;;;;;5112685;28;20505;-86
2023/03/29 11:34:56;;;;;;;14.48;7.20;;;11.10;99.90;;;;;;5129653;28;20047;-85
2023/03/29 11:37:37;;;;;;;13.40;7.10;;;11.20;99.90;;;;;;5132499;28;20552;-85
2023/03/29 11:40:44;;;;;;;14.20;7.38;;;11.40;99.90;;;;;;5149815;28;20214;-85
2023/03/29 11:43:25;;;;;;;12.55;6.85;;;11.50;99.90;;;;;;5114934;28;20063;-86
2023/03/29 11:45:55;;;;;;;11.80;6.25;;;11.60;99.90;;;;;;5112043;28;20082;-85
2023/03/29 11:48:33;;;;;;;10.63;6.65;;;11.60;99.90;;;;;;5111732;28;20101;-84
2023/03/29 11:51:03;;;;;;;11.15;6.35;;;11.60;99.90;;;;;;5128713;28;20044;-85
2023/03/29 11:53:40;;;;;;;13.88;7.28;;;11.70;99.90;;;;;;5111415;28;20407;-85
2023/03/29 11:56:14;;;;;;;13.48;6.72;;;11.80;99.90;;;;;;5111842;28;20050;-85
2023/03/29 11:58:47;;;;;;;14.35;7.30;;;11.90;99.90;;;;;;5130663;28;20035;-83
2023/03/29 12:01:21;;;;;;;12.50;7.53;;;12.00;99.90;;;;;;5111876;28;20047;-85
2023/03/29 12:03:58;;;;;;;12.50;6.93;;;12.00;99.90;;;;;;5128849;28;20088;-84
2023/03/29 12:06:52;;;;;;;13.57;6.88;;;12.10;99.90;;;;;;5134157;28;20385;-85
2023/03/29 12:10:06;;;;;;;12.80;7.35;;;12.10;99.90;;;;;;5112963;28;20085;-85
2023/03/29 12:12:47;;;;;;;11.52;7.32;;;12.30;99.90;;;;;;5092800;28;20111;-85
2023/03/29 12:15:23;;;;;;;11.07;7.00;;;12.40;99.90;;;;;;5111343;28;20044;-85
2023/03/29 12:18:21;;;;;;;13.30;6.88;;;12.40;99.90;;;;;;5111209;28;20405;-85
2023/03/29 12:20:56;;;;;;;11.70;6.45;;;12.50;99.90;;;;;;5128828;28;20035;-84
2023/03/29 12:23:23;;;;;;;13.40;5.90;;;12.60;99.90;;;;;;5131607;28;20508;-84
2023/03/29 12:26:07;;;;;;;9.85;6.53;;;12.50;99.90;;;;;;5114408;28;20040;-82
2023/03/29 12:29:04;;;;;;;12.38;7.22;;;12.60;99.90;;;;;;5131591;28;20035;-83
2023/03/29 12:31:49;;;;;;;15.30;7.43;;;12.70;99.90;;;;;;5131345;28;20079;-83
2023/03/29 12:34:35;;;;;;;12.35;6.95;;;12.80;99.90;;;;;;5119981;28;20122;-83
2023/03/29 12:37:29;;;;;;;11.38;6.88;;;12.90;99.90;;;;;;5127461;28;20039;-83
2023/03/29 12:40:11;;;;;;;10.50;6.47;;;12.90;99.90;;;;;;5108739;28;20558;-83
2023/03/29 12:42:51;;;;;;;11.77;6.88;;;12.90;99.90;;;;;;5110630;28;20543;-83
2023/03/29 12:45:36;;;;;;;11.13;6.70;;;13.00;99.90;;;;;;5119165;28;20039;-83
2023/03/29 12:48:03;;;;;;;10.57;6.35;;;13.00;99.90;;;;;;5115756;28;20040;-82
2023/03/29 12:50:35;;;;;;;9.57;6.00;;;13.10;99.90;;;;;;5110596;28;20040;-83
2023/03/29 12:53:15;;;;;;;10.35;6.03;;;13.20;99.90;;;;;;5118179;28;20074;-83
2023/03/29 12:55:42;;;;;;;10.13;6.10;;;13.20;99.90;;;;;;5121642;28;20128;-82
2023/03/29 12:58:46;;;;;;;12.05;5.97;;;13.30;99.90;;;;;;5117692;28;20502;-83
2023/03/29 13:01:31;;;;;;;11.70;5.65;;;13.30;99.90;;;;;;5119296;28;20035;-83
2023/03/29 13:03:58;;;;;;;8.50;4.97;;;13.30;99.90;;;;;;5130409;28;20044;-83
2023/03/29 13:06:30;;;;;;;8.30;4.90;;;13.30;99.90;;;;;;5147392;28;20380;-83
2023/03/29 13:09:00;;;;;;;9.20;5.15;;;13.30;99.90;;;;;;5128468;28;20105;-82
2023/03/29 13:11:38;;;;;;;9.27;5.03;;;13.20;99.90;;;;;;5117762;28;20040;-83
2023/03/29 13:14:15;;;;;;;8.43;5.13;;;13.20;99.90;;;;;;5130012;28;20043;-82
2023/03/29 13:16:42;;;;;;;9.95;4.63;;;13.20;99.90;;;;;;5130338;28;20126;-82